Rudd, Iowa
Current Conditions -  °F | °C
As of 7:35 PM on Tuesday 25 Nov 2014 (Local Time) from KCCY Reporting Station
Overcast Overcast  
Wind Chill:   Ceiling: 7000
Heat Index: 19°   Visibility: 10mi
Dew Point: 14°   Wind: 9mph
Humidity: 80%   Direction: 150°SSE
Pressure: 30.06"   Gusts: NA
Location:  43.13°N, 92.91°W
Report Text: KCCY 260135Z AUTO 15008KT 10SM OVC070 M07/M10 A3006 RMK AO2
Loading
Personal Weather Stations






























Interactive Weather Map New forecast layout! Learn more

10-Day Weather Forecast

Advertisements
Track Severe Weather on mobile